Impacts METAR Board
IDs:

KAQO - Llano Muni, TX, US

Updated at: 1300 UTC 16 Jul 2019
Potential Impact None Slight Moderate High
Time 16/01Z 16/02Z 16/03Z 16/04Z 16/05Z 16/06Z 16/07Z 16/08Z 16/09Z 16/10Z 16/11Z 16/12Z 16/13Z
Temp90 88 84 81 81 81 81 81 79 75 77 77
Dewpt68 72 72 72 72 72 73 73 73 73 73 73
Altim29.92 29.93 29.94 29.96 29.98 29.98 29.99 29.99 29.99 29.99 30.01 30.03
VIS10 10 10 10 10 10 10 10 10 10 10 10
CIG-- -- -- -- -- -- -- -- -- -- -- --
CoverCLRCLRCLRCLRCLRCLRCLRCLRCLRCLRCLRCLR
FltCatVFRVFRVFRVFRVFRVFRVFRVFRVFRVFRVFRVFR
WX------------------------
WDir15000000000000
WSpd6 0 0 0 0 0 0 0 0 0 0 0
WGst-- -- -- -- -- -- -- -- -- -- -- --
Raw hourly METARs
KAQO 160050Z AUTO 15006KT 10SM CLR 32/20 A2992 RMK AO2
KAQO 160150Z AUTO 00000KT 10SM CLR 31/22 A2993 RMK AO2
KAQO 160250Z AUTO 00000KT 10SM CLR 29/22 A2994 RMK AO2
KAQO 160350Z AUTO 00000KT 10SM CLR 27/22 A2996 RMK AO2
KAQO 160450Z AUTO 00000KT 10SM CLR 27/22 A2998 RMK AO2
KAQO 160550Z AUTO 00000KT 10SM CLR 27/22 A2998 RMK AO2
KAQO 160650Z AUTO 00000KT 10SM CLR 27/23 A2999 RMK AO2
KAQO 160750Z AUTO 00000KT 10SM CLR 27/23 A2999 RMK AO2
KAQO 160850Z AUTO 00000KT 10SM CLR 26/23 A2999 RMK AO2
KAQO 160950Z AUTO 00000KT 10SM CLR 24/23 A2999 RMK AO2
KAQO 161050Z AUTO 00000KT 10SM CLR 25/23 A3001 RMK AO2
KAQO 161150Z AUTO 00000KT 10SM CLR 25/23 A3003 RMK AO2